createdAt,value
2022-10-23T00:00:27.934Z,86.59
2022-10-23T00:03:30.475Z,86.83
2022-10-23T00:06:34.512Z,86.81
2022-10-23T00:09:37.117Z,86.84
2022-10-23T00:12:39.508Z,86.74
2022-10-23T00:15:42.229Z,87.01
2022-10-23T00:18:45.747Z,87.04
2022-10-23T00:21:48.362Z,87.22
2022-10-23T00:24:50.751Z,87.17
2022-10-23T00:27:53.411Z,87.23
2022-10-23T00:30:55.947Z,87.40
2022-10-23T00:33:58.652Z,87.54
2022-10-23T00:37:01.768Z,87.53
2022-10-23T00:40:05.230Z,87.64
2022-10-23T00:43:13.931Z,87.82
2022-10-23T00:46:16.529Z,87.61
2022-10-23T00:49:20.221Z,87.88
2022-10-23T00:52:22.774Z,87.74
2022-10-23T00:55:26.648Z,87.89
2022-10-23T00:58:29.499Z,87.81
2022-10-23T01:01:32.286Z,87.71
2022-10-23T01:04:35.738Z,87.73
2022-10-23T01:07:56.327Z,87.59
2022-10-23T01:11:10.178Z,87.75
2022-10-23T01:14:37.687Z,87.52
2022-10-23T01:18:00.741Z,87.53
2022-10-23T01:21:14.237Z,87.72
2022-10-23T01:24:47.089Z,87.97
2022-10-23T01:27:56.246Z,87.98
2022-10-23T01:31:02.370Z,88.07
2022-10-23T01:34:32.934Z,87.86
2022-10-23T01:37:49.804Z,88.09
2022-10-23T01:41:07.656Z,87.72
2022-10-23T01:44:18.791Z,87.90
2022-10-23T01:47:27.249Z,87.92
2022-10-23T01:50:31.511Z,87.94
2022-10-23T01:53:41.283Z,87.93
2022-10-23T01:56:48.198Z,87.98
2022-10-23T01:59:55.235Z,87.90
2022-10-23T02:02:58.889Z,87.55
2022-10-23T02:06:01.972Z,88.24
2022-10-23T02:09:06.748Z,88.31
2022-10-23T02:15:47.985Z,88.32
2022-10-23T02:18:57.160Z,88.44
2022-10-23T02:22:15.082Z,88.36
2022-10-23T02:25:24.630Z,88.48
2022-10-23T02:28:34.800Z,88.73
2022-10-23T02:31:37.787Z,88.75
2022-10-23T02:34:40.060Z,88.83
2022-10-23T02:37:53.056Z,88.80
2022-10-23T02:41:19.719Z,88.91
2022-10-23T02:45:07.261Z,88.85
2022-10-23T02:48:20.154Z,88.54
2022-10-23T02:51:41.939Z,88.73
2022-10-23T02:54:56.505Z,88.90
2022-10-23T02:58:12.602Z,89.10
2022-10-23T03:01:20.697Z,89.02
2022-10-23T03:04:26.236Z,89.09
2022-10-23T03:07:28.768Z,89.11
2022-10-23T03:10:37.031Z,89.34
2022-10-23T03:13:41.148Z,89.16
2022-10-23T03:16:43.711Z,89.08
2022-10-23T03:19:45.959Z,89.20
2022-10-23T03:22:49.657Z,89.19
2022-10-23T03:25:52.955Z,88.99
2022-10-23T03:28:59.986Z,89.19
2022-10-23T03:32:02.419Z,89.07
2022-10-23T03:35:05.397Z,89.02
2022-10-23T03:38:08.204Z,89.05
2022-10-23T03:41:10.962Z,89.21
2022-10-23T03:44:13.312Z,89.18
2022-10-23T03:47:19.423Z,89.18
2022-10-23T03:50:21.721Z,89.22
2022-10-23T03:53:24.267Z,89.25
2022-10-23T03:56:26.563Z,89.06
2022-10-23T03:59:29.766Z,89.08
2022-10-23T04:02:33.781Z,89.15
2022-10-23T04:05:36.323Z,89.18
2022-10-23T04:08:38.734Z,88.87
2022-10-23T04:11:43.611Z,89.03
2022-10-23T04:14:45.982Z,89.16
2022-10-23T04:17:48.575Z,89.02
2022-10-23T04:20:51.541Z,88.99
2022-10-23T04:23:54.158Z,88.97
2022-10-23T04:26:57.631Z,88.94
2022-10-23T04:30:03.779Z,88.88
2022-10-23T04:33:06.058Z,89.01
2022-10-23T04:36:09.961Z,89.17
2022-10-23T04:39:12.880Z,89.49
2022-10-23T04:42:15.551Z,89.56
2022-10-23T04:45:17.852Z,89.77
2022-10-23T04:48:21.741Z,89.78
2022-10-23T04:51:28.050Z,89.56
2022-10-23T04:54:38.779Z,89.70
2022-10-23T04:57:41.174Z,89.60
2022-10-23T05:00:44.945Z,89.89
2022-10-23T05:03:51.299Z,89.84
2022-10-23T05:06:54.154Z,89.66
2022-10-23T05:09:56.800Z,89.55
2022-10-23T05:12:59.875Z,89.63
2022-10-23T05:16:02.086Z,89.69
2022-10-23T05:19:07.922Z,89.58
2022-10-23T05:22:11.371Z,89.37
2022-10-23T05:25:17.966Z,89.55
2022-10-23T05:28:20.451Z,89.28
2022-10-23T05:31:25.003Z,89.36
2022-10-23T05:34:33.305Z,89.29
2022-10-23T05:37:39.907Z,89.21
2022-10-23T05:40:42.467Z,89.08
2022-10-23T05:43:49.116Z,89.01
2022-10-23T05:46:52.375Z,89.02
2022-10-23T05:49:54.984Z,88.90
2022-10-23T05:52:57.619Z,88.77
2022-10-23T05:56:05.808Z,88.76
2022-10-23T05:59:10.382Z,88.72
2022-10-23T06:02:14.726Z,88.32
2022-10-23T06:05:17.720Z,87.95
2022-10-23T06:08:20.528Z,87.59
2022-10-23T06:11:23.708Z,87.49
2022-10-23T06:14:27.063Z,87.35
2022-10-23T06:17:29.970Z,86.93
2022-10-23T06:20:35.563Z,87.19
2022-10-23T06:23:40.069Z,86.68
2022-10-23T06:26:43.043Z,86.77
2022-10-23T06:29:45.640Z,86.67
2022-10-23T06:32:48.051Z,86.55
2022-10-23T06:35:50.916Z,86.08
2022-10-23T06:38:53.383Z,85.58
2022-10-23T06:41:56.651Z,85.43
2022-10-23T06:45:08.805Z,85.33
2022-10-23T06:48:13.969Z,85.15
2022-10-23T06:51:18.189Z,84.89
2022-10-23T06:54:20.805Z,84.72
2022-10-23T06:57:26.679Z,84.12
2022-10-23T07:00:29.363Z,83.63
2022-10-23T07:03:32.707Z,83.17
2022-10-23T07:06:37.047Z,82.98
2022-10-23T07:09:39.849Z,82.63
2022-10-23T07:12:47.676Z,82.11
2022-10-23T07:15:54.502Z,82.03
2022-10-23T07:18:59.724Z,81.53
2022-10-23T07:22:06.000Z,81.26
2022-10-23T07:25:09.251Z,80.90
2022-10-23T07:28:11.640Z,80.77
2022-10-23T07:31:14.616Z,80.37
2022-10-23T07:34:17.936Z,80.56
2022-10-23T07:37:21.053Z,80.34
2022-10-23T07:40:23.469Z,79.52
2022-10-23T07:43:27.184Z,79.73
2022-10-23T07:46:29.487Z,78.67
2022-10-23T07:49:32.057Z,78.48
2022-10-23T07:52:36.211Z,77.96
2022-10-23T07:55:40.575Z,77.52
2022-10-23T07:58:44.135Z,77.34
2022-10-23T08:01:50.487Z,76.77
2022-10-23T08:04:55.737Z,76.04
2022-10-23T08:07:58.664Z,75.58
2022-10-23T08:11:01.180Z,74.68
2022-10-23T08:14:05.877Z,74.65
2022-10-23T08:17:09.978Z,74.41
2022-10-23T08:20:18.347Z,74.11
2022-10-23T08:23:21.348Z,73.98
2022-10-23T08:26:25.035Z,73.43
2022-10-23T08:29:28.094Z,73.07
2022-10-23T08:32:30.883Z,72.74
2022-10-23T08:35:39.534Z,72.37
2022-10-23T08:38:41.954Z,72.46
2022-10-23T08:41:51.544Z,72.05
2022-10-23T08:45:07.913Z,72.59
2022-10-23T08:48:21.304Z,72.19
2022-10-23T08:51:40.508Z,72.34
2022-10-23T08:55:07.549Z,71.73
2022-10-23T08:58:29.639Z,72.18
2022-10-23T09:01:38.438Z,71.76
2022-10-23T09:04:43.594Z,71.44
2022-10-23T09:08:18.161Z,71.71
2022-10-23T09:11:32.656Z,71.92
2022-10-23T09:15:04.114Z,72.34
2022-10-23T09:18:16.570Z,71.99
2022-10-23T09:21:19.165Z,72.53
2022-10-23T09:24:23.786Z,71.86
2022-10-23T09:27:26.357Z,72.17
2022-10-23T09:30:38.354Z,72.88
2022-10-23T09:33:41.824Z,72.55
2022-10-23T09:36:51.055Z,72.05
2022-10-23T09:40:19.596Z,71.65
2022-10-23T09:43:24.123Z,70.93
2022-10-23T09:49:55.861Z,70.90
2022-10-23T09:52:58.664Z,71.25
2022-10-23T09:56:04.856Z,71.12
2022-10-23T09:59:13.156Z,71.78
2022-10-23T10:02:29.101Z,71.93
2022-10-23T10:05:36.462Z,71.77
2022-10-23T10:08:53.143Z,72.01
2022-10-23T10:12:03.229Z,72.42
2022-10-23T10:15:18.643Z,72.06
2022-10-23T10:18:47.186Z,72.01
2022-10-23T10:22:11.025Z,72.17
2022-10-23T10:25:49.763Z,71.67
2022-10-23T10:29:05.272Z,71.88
2022-10-23T10:32:21.646Z,71.18
2022-10-23T10:35:48.183Z,70.93
2022-10-23T10:38:54.709Z,70.81
2022-10-23T10:42:24.295Z,70.70
2022-10-23T10:45:33.363Z,71.22
2022-10-23T10:48:41.394Z,71.95
2022-10-23T10:52:06.791Z,71.71
2022-10-23T10:55:49.207Z,71.48
2022-10-23T10:59:28.890Z,71.36
2022-10-23T11:02:44.040Z,71.56
2022-10-23T11:05:51.615Z,72.42
2022-10-23T11:09:15.584Z,72.10
2022-10-23T11:12:20.530Z,72.07
2022-10-23T11:15:29.032Z,71.70
2022-10-23T11:18:33.728Z,71.69
2022-10-23T11:22:06.767Z,71.82
2022-10-23T11:25:47.263Z,71.32
2022-10-23T11:29:02.154Z,70.99
2022-10-23T11:32:10.361Z,71.06
2022-10-23T11:35:24.341Z,71.40
2022-10-23T11:38:32.067Z,71.08
2022-10-23T11:41:34.750Z,70.78
2022-10-23T11:44:44.237Z,70.23
2022-10-23T11:47:58.647Z,70.62
2022-10-23T11:51:05.233Z,70.33
2022-10-23T11:54:16.731Z,70.33
2022-10-23T11:57:19.371Z,70.13
2022-10-23T12:00:22.538Z,70.64
2022-10-23T12:03:40.657Z,71.33
2022-10-23T12:06:49.735Z,70.64
2022-10-23T12:10:05.756Z,71.04
2022-10-23T12:13:37.297Z,71.01
2022-10-23T12:16:39.828Z,70.20
2022-10-23T12:19:48.403Z,70.10
2022-10-23T12:22:58.877Z,69.77
2022-10-23T12:26:19.918Z,70.02
2022-10-23T12:29:48.667Z,70.42
2022-10-23T12:33:12.181Z,71.04
2022-10-23T12:36:37.730Z,71.69
2022-10-23T12:39:40.776Z,71.28
2022-10-23T12:42:52.696Z,70.57
2022-10-23T12:45:57.273Z,70.31
2022-10-23T12:49:01.770Z,71.16
2022-10-23T12:52:06.718Z,71.78
2022-10-23T12:55:14.090Z,72.67
2022-10-23T12:58:25.503Z,72.78
2022-10-23T13:01:33.858Z,71.49
2022-10-23T13:04:36.969Z,71.02
2022-10-23T13:07:45.273Z,71.84
2022-10-23T13:10:49.172Z,72.52
2022-10-23T13:13:53.464Z,72.39
2022-10-23T13:17:00.593Z,72.33
2022-10-23T13:20:31.376Z,72.17
2022-10-23T13:23:35.466Z,72.39
2022-10-23T13:26:45.268Z,73.13
2022-10-23T13:29:47.718Z,73.59
2022-10-23T13:32:50.219Z,74.24
2022-10-23T13:36:20.435Z,74.49
2022-10-23T13:39:34.194Z,74.62
2022-10-23T13:42:36.531Z,74.49
2022-10-23T13:45:41.340Z,74.27
2022-10-23T13:48:43.912Z,74.07
2022-10-23T13:51:53.731Z,73.93
2022-10-23T13:54:56.019Z,74.10
2022-10-23T13:57:58.521Z,73.74
2022-10-23T14:01:01.058Z,73.75
2022-10-23T14:04:05.504Z,74.35
2022-10-23T14:07:07.720Z,74.48
2022-10-23T14:10:10.272Z,74.52
2022-10-23T14:13:12.512Z,74.73
2022-10-23T14:16:17.686Z,75.27
2022-10-23T14:19:19.971Z,75.32
2022-10-23T14:22:22.555Z,75.84
2022-10-23T14:25:24.856Z,75.66
2022-10-23T14:28:27.527Z,75.66
2022-10-23T14:31:29.853Z,75.81
2022-10-23T14:34:32.433Z,75.91
2022-10-23T14:37:35.100Z,75.87
2022-10-23T14:40:38.830Z,76.17
2022-10-23T14:43:42.970Z,76.02
2022-10-23T14:46:45.470Z,76.29
2022-10-23T14:49:52.091Z,76.71
2022-10-23T14:52:54.667Z,76.91
2022-10-23T14:56:04.683Z,77.00
2022-10-23T14:59:08.039Z,77.27
2022-10-23T15:02:11.835Z,77.18
2022-10-23T15:05:14.696Z,77.11
2022-10-23T15:08:16.950Z,76.93
2022-10-23T15:11:19.473Z,76.92
2022-10-23T15:14:21.766Z,77.09
2022-10-23T15:17:24.331Z,77.16
2022-10-23T15:20:26.689Z,77.61
2022-10-23T15:23:29.162Z,77.52
2022-10-23T15:26:31.837Z,77.49
2022-10-23T15:29:34.360Z,77.38
2022-10-23T15:32:36.870Z,77.54
2022-10-23T15:35:39.410Z,77.33
2022-10-23T15:38:42.026Z,77.27
2022-10-23T15:41:45.063Z,77.23
2022-10-23T15:44:47.361Z,77.31
2022-10-23T15:47:52.708Z,77.48
2022-10-23T15:50:55.640Z,77.60
2022-10-23T15:53:58.246Z,77.68
2022-10-23T15:57:01.420Z,77.49
2022-10-23T16:00:05.984Z,77.69
2022-10-23T16:03:10.903Z,77.68
2022-10-23T16:06:15.855Z,77.68
2022-10-23T16:09:18.143Z,77.66
2022-10-23T16:12:20.780Z,77.65
2022-10-23T16:15:23.106Z,77.62
2022-10-23T16:18:25.734Z,77.46
2022-10-23T16:21:31.405Z,77.20
2022-10-23T16:24:34.255Z,77.40
2022-10-23T16:27:36.544Z,77.42
2022-10-23T16:30:43.567Z,77.45
2022-10-23T16:33:46.570Z,77.11
2022-10-23T16:36:49.652Z,76.95
2022-10-23T16:39:52.543Z,76.89
2022-10-23T16:42:59.382Z,76.97
2022-10-23T16:46:02.268Z,75.90
2022-10-23T16:49:06.089Z,75.23
2022-10-23T16:52:08.602Z,74.96
2022-10-23T16:55:11.192Z,74.28
2022-10-23T16:58:13.452Z,74.21
2022-10-23T17:01:19.539Z,74.34
2022-10-23T17:04:21.883Z,74.16
2022-10-23T17:07:24.528Z,74.07
2022-10-23T17:10:27.133Z,73.95
2022-10-23T17:13:29.805Z,74.09
2022-10-23T17:16:45.654Z,74.31
2022-10-23T17:19:48.265Z,74.32
2022-10-23T17:22:50.495Z,74.64
2022-10-23T17:25:53.494Z,74.80
2022-10-23T17:29:00.516Z,74.85
2022-10-23T17:32:03.249Z,74.93
2022-10-23T17:35:08.113Z,75.17
2022-10-23T17:38:11.855Z,75.25
2022-10-23T17:41:16.514Z,75.41
2022-10-23T17:44:19.206Z,75.63
2022-10-23T17:47:21.467Z,75.75
2022-10-23T17:50:24.078Z,75.86
2022-10-23T17:53:26.371Z,75.97
2022-10-23T17:56:31.118Z,76.18
2022-10-23T17:59:33.343Z,76.30
2022-10-23T18:02:35.963Z,76.39
2022-10-23T18:08:43.319Z,76.46
2022-10-23T18:11:48.134Z,76.59
2022-10-23T18:14:50.778Z,76.63
2022-10-23T18:17:56.150Z,76.80
2022-10-23T18:20:59.403Z,76.81
2022-10-23T18:24:02.489Z,77.09
2022-10-23T18:27:04.747Z,77.02
2022-10-23T18:30:07.914Z,77.27
2022-10-23T18:33:10.159Z,77.37
2022-10-23T18:36:22.757Z,77.58
2022-10-23T18:39:25.890Z,77.77
2022-10-23T18:42:28.434Z,78.09
2022-10-23T18:45:31.676Z,78.18
2022-10-23T18:48:35.314Z,78.12
2022-10-23T18:51:38.130Z,78.09
2022-10-23T18:54:40.590Z,78.53
2022-10-23T18:57:43.232Z,78.61
2022-10-23T19:00:46.733Z,78.57
2022-10-23T19:03:49.926Z,78.77
2022-10-23T19:06:52.616Z,78.64
2022-10-23T19:09:55.595Z,78.82
2022-10-23T19:12:58.110Z,78.95
2022-10-23T19:16:00.539Z,79.06
2022-10-23T19:19:25.368Z,79.11
2022-10-23T19:22:30.568Z,79.34
2022-10-23T19:25:35.446Z,79.42
2022-10-23T19:28:44.408Z,79.54
2022-10-23T19:31:49.377Z,79.47
2022-10-23T19:34:51.815Z,79.58
2022-10-23T19:37:54.518Z,79.59
2022-10-23T19:40:57.039Z,79.48
2022-10-23T19:43:59.893Z,79.39
2022-10-23T19:47:03.439Z,79.73
2022-10-23T19:50:07.915Z,79.63
2022-10-23T19:53:10.526Z,79.92
2022-10-23T19:56:13.138Z,79.85
2022-10-23T19:59:15.753Z,80.04
2022-10-23T20:02:20.078Z,80.04
2022-10-23T20:05:22.881Z,80.02
2022-10-23T20:08:25.114Z,80.06
2022-10-23T20:11:30.129Z,80.10
2022-10-23T20:14:32.969Z,80.00
2022-10-23T20:17:35.901Z,80.15
2022-10-23T20:20:42.141Z,80.24
2022-10-23T20:23:45.558Z,80.37
2022-10-23T20:26:50.454Z,80.35
2022-10-23T20:29:52.951Z,80.41
2022-10-23T20:32:55.661Z,80.34
2022-10-23T20:35:58.214Z,80.60
2022-10-23T20:39:09.220Z,80.50
2022-10-23T20:42:11.906Z,80.70
2022-10-23T20:45:14.242Z,80.54
2022-10-23T20:48:16.864Z,80.76
2022-10-23T20:51:21.322Z,80.91
2022-10-23T20:54:26.922Z,80.91
2022-10-23T20:57:29.280Z,80.93
2022-10-23T21:00:32.104Z,81.06
2022-10-23T21:03:34.686Z,81.05
2022-10-23T21:06:46.098Z,80.92
2022-10-23T21:09:59.494Z,80.94
2022-10-23T21:13:02.159Z,80.99
2022-10-23T21:16:17.375Z,80.85
2022-10-23T21:19:19.982Z,80.84
2022-10-23T21:22:22.245Z,80.91
2022-10-23T21:25:24.783Z,80.80
2022-10-23T21:28:27.052Z,80.68
2022-10-23T21:31:29.604Z,80.81
2022-10-23T21:34:31.909Z,80.64
2022-10-23T21:37:34.552Z,80.92
2022-10-23T21:40:36.789Z,80.82
2022-10-23T21:43:39.459Z,80.74
2022-10-23T21:46:41.898Z,80.79
2022-10-23T21:49:44.791Z,80.68
2022-10-23T21:52:52.061Z,80.51
2022-10-23T21:55:56.180Z,80.58
2022-10-23T21:59:00.778Z,80.52
2022-10-23T22:02:04.297Z,80.60
2022-10-23T22:05:10.366Z,80.67
2022-10-23T22:08:12.870Z,80.64
2022-10-23T22:11:16.262Z,80.94
2022-10-23T22:14:19.190Z,80.79
2022-10-23T22:17:21.755Z,80.83
2022-10-23T22:20:24.053Z,80.79
2022-10-23T22:23:26.887Z,80.79
2022-10-23T22:26:31.291Z,80.84
2022-10-23T22:29:34.104Z,80.86
2022-10-23T22:32:36.322Z,81.14
2022-10-23T22:35:39.293Z,81.18
2022-10-23T22:38:42.173Z,81.21
2022-10-23T22:41:44.702Z,81.38
2022-10-23T22:44:47.058Z,81.40
2022-10-23T22:47:49.552Z,81.62
2022-10-23T22:50:51.864Z,81.72
2022-10-23T22:53:55.234Z,81.78
2022-10-23T22:56:57.952Z,81.89
2022-10-23T23:00:00.954Z,82.08
2022-10-23T23:03:03.287Z,82.16
2022-10-23T23:06:08.823Z,82.31
2022-10-23T23:09:14.159Z,82.65
2022-10-23T23:12:20.268Z,82.84
2022-10-23T23:15:22.666Z,82.92
2022-10-23T23:18:25.591Z,82.88
2022-10-23T23:21:29.290Z,82.89
2022-10-23T23:24:32.196Z,82.88
2022-10-23T23:27:34.475Z,83.07
2022-10-23T23:30:37.097Z,83.12
2022-10-23T23:33:39.388Z,83.30
2022-10-23T23:36:42.026Z,83.17
2022-10-23T23:39:44.252Z,83.30
2022-10-23T23:42:47.173Z,83.16
2022-10-23T23:45:49.526Z,83.29
2022-10-23T23:48:52.139Z,83.39
2022-10-23T23:51:54.366Z,83.60
2022-10-23T23:54:57.077Z,83.76
2022-10-23T23:57:59.291Z,83.64
